Time;durP1;ratioP1;P1;durP2;ratioP2;P2;SDS_P1;SDS_P2;PMS_P1;PMS_P2;Temp;Humidity;BMP_temperature;BMP_pressure;BME280_temperature;BME280_humidity;BME280_pressure;Samples;Min_cycle;Max_cycle;Signal;HPM_P1;HPM_P2
2024/01/29 00:01:59;;;;;;;14.15;6.85;;;0.60;99.90;;;;;;5109321;28;20019;-42
2024/01/29 00:04:24;;;;;;;14.75;7.25;;;0.60;99.90;;;;;;5108001;28;20031;-44
2024/01/29 00:06:50;;;;;;;23.75;9.15;;;0.60;99.90;;;;;;5109345;28;20023;-43
2024/01/29 00:09:17;;;;;;;13.77;7.43;;;0.60;99.90;;;;;;5109246;28;20099;-42
2024/01/29 00:11:43;;;;;;;13.65;6.72;;;0.60;99.90;;;;;;5108231;28;20440;-43
2024/01/29 00:14:09;;;;;;;14.70;7.90;;;0.50;99.90;;;;;;5109601;28;20051;-41
2024/01/29 00:16:34;;;;;;;18.73;8.23;;;0.60;99.90;;;;;;5108266;27;20070;-43
2024/01/29 00:19:00;;;;;;;13.13;7.20;;;0.60;99.90;;;;;;5103965;28;20024;-42
2024/01/29 00:21:26;;;;;;;14.88;8.35;;;0.60;99.90;;;;;;5105557;28;20126;-42
2024/01/29 00:23:51;;;;;;;15.80;8.30;;;0.60;99.90;;;;;;5109043;28;20024;-47
2024/01/29 00:26:17;;;;;;;14.52;8.10;;;0.60;99.90;;;;;;5109005;28;20366;-43
2024/01/29 00:28:43;;;;;;;12.13;7.35;;;0.60;99.90;;;;;;5108714;28;20517;-43
2024/01/29 00:31:09;;;;;;;16.63;7.47;;;0.60;99.90;;;;;;5108770;28;20051;-43
2024/01/29 00:33:35;;;;;;;13.40;7.20;;;0.60;99.90;;;;;;5108093;28;20027;-43
2024/01/29 00:36:01;;;;;;;19.10;8.32;;;0.60;99.90;;;;;;5109111;28;20045;-42
2024/01/29 00:38:26;;;;;;;16.15;7.65;;;0.60;99.90;;;;;;5108114;28;20035;-44
2024/01/29 00:40:52;;;;;;;19.33;8.00;;;0.60;99.90;;;;;;5107793;28;20051;-43
2024/01/29 00:43:17;;;;;;;15.48;7.63;;;0.60;99.90;;;;;;5108745;27;20027;-42
2024/01/29 00:45:43;;;;;;;16.55;8.07;;;0.60;99.90;;;;;;5108605;28;20457;-42
2024/01/29 00:48:09;;;;;;;14.45;7.32;;;0.60;99.90;;;;;;5109208;28;20020;-43
2024/01/29 00:50:34;;;;;;;18.85;8.75;;;0.70;99.90;;;;;;5108201;28;20069;-43
2024/01/29 00:53:00;;;;;;;13.80;7.32;;;0.60;99.90;;;;;;5109067;28;20043;-42
2024/01/29 00:55:25;;;;;;;16.38;7.75;;;0.60;99.90;;;;;;5108936;28;20046;-43
2024/01/29 00:57:51;;;;;;;14.93;7.53;;;0.70;99.90;;;;;;5108926;28;20019;-42
2024/01/29 01:00:17;;;;;;;14.48;6.70;;;0.60;99.90;;;;;;5109073;28;20028;-43
2024/01/29 01:02:42;;;;;;;19.42;8.05;;;0.60;99.90;;;;;;5108002;27;20035;-42
2024/01/29 01:05:08;;;;;;;15.98;6.63;;;0.50;99.90;;;;;;5109086;28;20019;-42
2024/01/29 01:07:33;;;;;;;14.93;8.23;;;0.50;99.90;;;;;;5108915;28;20031;-44
2024/01/29 01:09:59;;;;;;;16.13;8.25;;;0.40;99.90;;;;;;5109381;28;20081;-42
2024/01/29 01:12:25;;;;;;;13.93;7.25;;;0.40;99.90;;;;;;5100331;28;20020;-43
2024/01/29 01:14:51;;;;;;;13.10;7.07;;;0.40;99.90;;;;;;5109244;28;20012;-42
2024/01/29 01:17:16;;;;;;;10.73;6.53;;;0.40;99.90;;;;;;5107982;28;20023;-42
2024/01/29 01:19:42;;;;;;;11.88;6.32;;;0.30;99.90;;;;;;5108419;28;20027;-42
2024/01/29 01:22:08;;;;;;;13.80;7.75;;;0.30;99.90;;;;;;5108827;28;20027;-41
2024/01/29 01:24:33;;;;;;;14.65;7.70;;;0.30;99.90;;;;;;5108939;28;20109;-42
2024/01/29 01:26:59;;;;;;;14.55;7.25;;;0.30;99.90;;;;;;5109228;28;20041;-43
2024/01/29 01:29:24;;;;;;;16.63;7.70;;;0.30;99.90;;;;;;5105604;28;20016;-44
2024/01/29 01:31:50;;;;;;;15.73;7.20;;;0.30;99.90;;;;;;5108974;27;20031;-44
2024/01/29 01:34:16;;;;;;;14.20;6.95;;;0.20;99.90;;;;;;5109489;28;20028;-43
2024/01/29 01:36:41;;;;;;;15.88;7.43;;;0.20;99.90;;;;;;5108944;28;20644;-41
2024/01/29 01:39:08;;;;;;;12.88;7.13;;;0.30;99.90;;;;;;5109231;28;20036;-42
2024/01/29 01:41:34;;;;;;;18.48;7.65;;;0.20;99.90;;;;;;5108820;28;20373;-44
2024/01/29 01:43:59;;;;;;;14.70;7.78;;;0.20;99.90;;;;;;5108600;28;20026;-46
2024/01/29 01:46:25;;;;;;;16.35;7.53;;;0.10;99.90;;;;;;5109058;28;20055;-43
2024/01/29 01:48:53;;;;;;;11.52;6.63;;;0.10;99.90;;;;;;5109366;28;20019;-42
2024/01/29 01:51:22;;;;;;;14.93;7.10;;;0.20;99.90;;;;;;5108878;28;20038;-42
2024/01/29 01:53:52;;;;;;;21.67;7.25;;;0.10;99.90;;;;;;5109576;28;20418;-43
2024/01/29 01:56:18;;;;;;;17.73;7.45;;;0.10;99.90;;;;;;5109470;28;20535;-44
2024/01/29 01:58:44;;;;;;;12.45;6.85;;;0.10;99.90;;;;;;5104987;28;20055;-42
2024/01/29 02:01:12;;;;;;;13.73;7.38;;;0.10;99.90;;;;;;5089259;28;20099;-45
2024/01/29 02:03:39;;;;;;;13.77;7.90;;;0.20;99.90;;;;;;5087742;28;20440;-43
2024/01/29 02:06:06;;;;;;;14.73;7.53;;;0.20;99.90;;;;;;5088992;28;20020;-42
2024/01/29 02:08:32;;;;;;;12.93;6.80;;;0.20;99.90;;;;;;5088927;28;20020;-44
2024/01/29 02:11:00;;;;;;;13.90;6.72;;;0.30;99.90;;;;;;5088749;28;20026;-43
2024/01/29 02:13:25;;;;;;;11.20;6.28;;;0.30;99.90;;;;;;5088697;28;20103;-42
2024/01/29 02:15:51;;;;;;;12.00;6.63;;;0.30;99.90;;;;;;5088927;28;20145;-43
2024/01/29 02:18:17;;;;;;;14.07;6.63;;;0.30;99.90;;;;;;5089342;28;20027;-44
2024/01/29 02:20:42;;;;;;;12.82;5.60;;;0.20;99.90;;;;;;5089280;28;20031;-42
2024/01/29 02:23:08;;;;;;;14.25;6.20;;;0.30;99.90;;;;;;5087268;28;20101;-42
2024/01/29 02:25:33;;;;;;;12.07;5.97;;;0.30;99.90;;;;;;5089086;28;20028;-42
2024/01/29 02:27:59;;;;;;;14.20;6.47;;;0.30;99.90;;;;;;5089234;28;20044;-44
2024/01/29 02:30:24;;;;;;;13.30;6.80;;;0.30;99.90;;;;;;5088356;28;20073;-42
2024/01/29 02:32:50;;;;;;;13.85;6.22;;;0.30;99.90;;;;;;5088386;28;20024;-43
2024/01/29 02:35:16;;;;;;;14.00;6.03;;;0.20;99.90;;;;;;5088892;28;20032;-43
2024/01/29 02:37:41;;;;;;;8.07;4.78;;;0.20;99.90;;;;;;5088966;28;20082;-44
2024/01/29 02:40:07;;;;;;;14.93;5.95;;;0.10;99.90;;;;;;5088349;28;20112;-43
2024/01/29 02:42:33;;;;;;;11.65;5.90;;;0.10;99.90;;;;;;5088631;28;20024;-43
2024/01/29 02:44:59;;;;;;;12.07;6.00;;;0.00;99.90;;;;;;5089207;28;20201;-43
2024/01/29 02:47:25;;;;;;;12.27;5.97;;;0.00;99.90;;;;;;5089695;28;20505;-42
2024/01/29 02:49:50;;;;;;;12.15;5.47;;;0.10;99.90;;;;;;5089183;28;20020;-42
2024/01/29 02:52:16;;;;;;;11.52;6.32;;;0.00;99.90;;;;;;5089041;28;20107;-43
2024/01/29 02:54:42;;;;;;;12.02;5.63;;;0.00;99.90;;;;;;5091803;28;20036;-41
2024/01/29 02:57:08;;;;;;;13.90;6.15;;;-0.10;99.90;;;;;;5094042;28;20028;-43
2024/01/29 02:59:33;;;;;;;10.63;5.53;;;-0.10;99.90;;;;;;5093594;28;20130;-44
2024/01/29 03:02:00;;;;;;;12.93;5.72;;;-0.10;99.90;;;;;;5093306;28;20036;-43
2024/01/29 03:04:25;;;;;;;13.35;5.93;;;-0.10;99.90;;;;;;5094221;28;20075;-42
2024/01/29 03:06:51;;;;;;;9.55;5.65;;;-0.10;99.90;;;;;;5092228;28;20043;-43
2024/01/29 03:09:17;;;;;;;10.68;5.35;;;-0.10;99.90;;;;;;5092955;28;20511;-42
2024/01/29 03:11:43;;;;;;;8.70;5.82;;;-0.10;99.90;;;;;;5092515;28;20137;-42
2024/01/29 03:14:09;;;;;;;9.65;5.80;;;-0.10;99.90;;;;;;5093714;28;20063;-43
2024/01/29 03:16:35;;;;;;;9.13;5.70;;;-0.20;99.90;;;;;;5092692;28;20059;-42
2024/01/29 03:19:01;;;;;;;11.35;5.72;;;-0.20;99.90;;;;;;5093488;28;20122;-42
2024/01/29 03:21:27;;;;;;;11.43;5.97;;;-0.10;99.90;;;;;;5093766;28;20054;-43
2024/01/29 03:23:53;;;;;;;14.77;5.63;;;-0.10;99.90;;;;;;5093396;28;20044;-41
2024/01/29 03:26:19;;;;;;;14.43;5.65;;;-0.20;99.90;;;;;;5093832;28;20019;-42
2024/01/29 03:28:45;;;;;;;12.52;5.70;;;-0.20;99.90;;;;;;5094983;28;20028;-42
2024/01/29 03:31:10;;;;;;;11.60;6.05;;;-0.20;99.90;;;;;;5100637;28;20511;-43
2024/01/29 03:33:36;;;;;;;13.88;6.28;;;-0.10;99.90;;;;;;5099896;28;20127;-43
2024/01/29 03:36:06;;;;;;;14.13;6.38;;;0.00;99.90;;;;;;5101965;28;20039;-43
2024/01/29 03:38:32;;;;;;;;;;;0.00;99.90;;;;;;5098433;28;20020;-41
2024/01/29 03:40:58;;;;;;;11.02;5.30;;;0.10;99.90;;;;;;5100995;28;19923;-43
2024/01/29 03:43:24;;;;;;;11.75;5.45;;;0.10;99.90;;;;;;5099143;28;20308;-41
2024/01/29 03:45:51;;;;;;;11.68;5.80;;;0.10;99.90;;;;;;5100479;28;20366;-45
2024/01/29 03:48:17;;;;;;;8.68;4.97;;;0.10;99.90;;;;;;5100428;28;20022;-45
2024/01/29 03:50:43;;;;;;;8.93;5.38;;;0.10;99.90;;;;;;5092884;28;20028;-43
2024/01/29 03:53:09;;;;;;;12.38;5.32;;;0.10;99.90;;;;;;5092205;28;20081;-43
2024/01/29 03:55:34;;;;;;;9.43;4.43;;;0.20;99.90;;;;;;5092947;28;20028;-42
2024/01/29 03:58:00;;;;;;;11.32;5.75;;;0.20;99.90;;;;;;5092339;28;20036;-42
2024/01/29 04:00:26;;;;;;;9.32;5.53;;;0.20;99.90;;;;;;5074310;28;20036;-42
2024/01/29 04:02:52;;;;;;;14.48;5.35;;;0.20;99.90;;;;;;5091421;28;20111;-42
2024/01/29 04:05:18;;;;;;;10.90;5.18;;;0.30;99.90;;;;;;5090772;28;20048;-42
2024/01/29 04:07:44;;;;;;;8.50;5.40;;;0.30;99.90;;;;;;5094465;28;20020;-43
2024/01/29 04:10:10;;;;;;;11.85;5.88;;;0.30;99.90;;;;;;5094137;28;20500;-42
2024/01/29 04:12:36;;;;;;;11.73;5.75;;;0.30;99.90;;;;;;5094445;28;20028;-43
2024/01/29 04:15:02;;;;;;;8.90;4.80;;;0.40;99.90;;;;;;5093679;28;20054;-43
2024/01/29 04:17:27;;;;;;;11.68;5.28;;;0.40;99.90;;;;;;5094597;28;20052;-44
2024/01/29 04:19:53;;;;;;;10.52;5.30;;;0.40;99.90;;;;;;5094233;28;20089;-43
2024/01/29 04:22:18;;;;;;;8.40;4.88;;;0.30;99.90;;;;;;5093384;28;20020;-46
2024/01/29 04:24:44;;;;;;;9.13;4.88;;;0.30;99.90;;;;;;5095247;28;20080;-46
2024/01/29 04:27:09;;;;;;;10.65;5.10;;;0.30;99.90;;;;;;5092466;28;20012;-44
2024/01/29 04:29:35;;;;;;;9.35;5.10;;;0.30;99.90;;;;;;5095172;28;20032;-44
2024/01/29 04:32:01;;;;;;;10.30;5.32;;;0.20;99.90;;;;;;5093517;28;20302;-42
2024/01/29 04:34:26;;;;;;;8.80;5.07;;;0.20;99.90;;;;;;5094359;28;20096;-42
2024/01/29 04:36:52;;;;;;;9.00;4.93;;;0.20;99.90;;;;;;5094820;28;20513;-42
2024/01/29 04:39:17;;;;;;;16.77;5.55;;;0.10;99.90;;;;;;5093534;28;20036;-42
2024/01/29 04:41:43;;;;;;;11.95;5.07;;;0.10;99.90;;;;;;5094658;28;20448;-43
2024/01/29 04:44:08;;;;;;;11.70;4.78;;;0.00;99.90;;;;;;5093831;28;20028;-43
2024/01/29 04:46:36;;;;;;;8.77;5.10;;;0.10;99.90;;;;;;5095238;28;20386;-43
2024/01/29 04:49:02;;;;;;;9.93;5.50;;;0.10;99.90;;;;;;5086150;28;20027;-42
2024/01/29 04:51:27;;;;;;;10.25;5.80;;;0.00;99.90;;;;;;5093387;28;20477;-42
2024/01/29 04:53:53;;;;;;;12.63;6.13;;;0.10;99.90;;;;;;5092266;28;20023;-43
2024/01/29 04:56:19;;;;;;;14.73;5.03;;;0.10;99.90;;;;;;5093668;28;20031;-43
2024/01/29 04:58:45;;;;;;;8.10;4.75;;;0.10;99.90;;;;;;5095357;28;20676;-45
2024/01/29 05:01:10;;;;;;;8.82;4.75;;;0.10;99.90;;;;;;5092475;28;20479;-42
2024/01/29 05:03:37;;;;;;;9.88;5.68;;;0.10;99.90;;;;;;5095430;28;20012;-42
2024/01/29 05:06:02;;;;;;;7.93;4.13;;;0.10;99.90;;;;;;5093264;28;20017;-42
2024/01/29 05:08:28;;;;;;;11.48;5.13;;;0.10;99.90;;;;;;5091894;28;20034;-42
2024/01/29 05:10:53;;;;;;;10.30;4.93;;;0.10;99.90;;;;;;5093446;28;20030;-44
2024/01/29 05:13:19;;;;;;;12.02;4.90;;;0.10;99.90;;;;;;5093605;28;20031;-42
2024/01/29 05:15:45;;;;;;;7.35;4.72;;;0.20;99.90;;;;;;5095460;28;20030;-43
2024/01/29 05:18:11;;;;;;;9.60;4.68;;;0.10;99.90;;;;;;5090527;28;20447;-42
2024/01/29 05:20:37;;;;;;;8.48;4.97;;;0.10;99.90;;;;;;5093213;28;20408;-43
2024/01/29 05:23:02;;;;;;;8.45;4.43;;;0.10;99.90;;;;;;5091034;28;20031;-44
2024/01/29 05:25:28;;;;;;;8.90;4.30;;;0.10;99.90;;;;;;5092978;28;20208;-43
2024/01/29 05:27:54;;;;;;;12.95;4.88;;;0.10;99.90;;;;;;5094748;28;20019;-43
2024/01/29 05:30:19;;;;;;;6.70;4.28;;;0.10;99.90;;;;;;5093674;28;20061;-46
2024/01/29 05:32:45;;;;;;;9.32;4.40;;;0.10;99.90;;;;;;5095180;28;20519;-50
2024/01/29 05:35:11;;;;;;;8.18;4.47;;;0.00;99.90;;;;;;5092295;28;20020;-43
2024/01/29 05:37:36;;;;;;;7.35;4.32;;;0.00;99.90;;;;;;5095687;28;20017;-42
2024/01/29 05:40:11;;;;;;;7.78;4.47;;;0.00;99.90;;;;;;5106460;27;20429;-41
2024/01/29 05:42:37;;;;;;;25.15;5.25;;;0.00;99.90;;;;;;5093404;28;20084;-41
2024/01/29 05:45:04;;;;;;;7.57;4.60;;;0.10;99.90;;;;;;5089140;28;20016;-43
2024/01/29 05:47:29;;;;;;;13.05;5.15;;;0.00;99.90;;;;;;5086532;28;20024;-42
2024/01/29 05:49:55;;;;;;;9.57;5.10;;;0.00;99.90;;;;;;5087171;28;20115;-41
2024/01/29 05:52:21;;;;;;;11.55;4.97;;;0.10;99.90;;;;;;5088611;28;20040;-42
2024/01/29 05:54:46;;;;;;;11.15;6.30;;;0.00;99.90;;;;;;5090952;28;20025;-41
2024/01/29 05:57:12;;;;;;;13.77;5.80;;;0.00;99.90;;;;;;5084611;28;20028;-42
2024/01/29 05:59:41;;;;;;;9.07;4.68;;;0.00;99.90;;;;;;5085082;28;20024;-42
2024/01/29 06:02:07;;;;;;;11.07;4.80;;;0.10;99.90;;;;;;5091058;28;20497;-42
2024/01/29 06:04:33;;;;;;;8.57;4.68;;;0.00;99.90;;;;;;5084179;28;20020;-42
2024/01/29 06:06:59;;;;;;;13.95;5.30;;;0.10;99.90;;;;;;5085636;28;20533;-43
2024/01/29 06:09:24;;;;;;;9.50;4.93;;;0.10;99.90;;;;;;5091260;28;20283;-42
2024/01/29 06:11:50;;;;;;;9.35;4.15;;;0.00;99.90;;;;;;5089383;28;20451;-41
2024/01/29 06:14:17;;;;;;;8.35;4.40;;;-0.10;99.90;;;;;;5083805;28;20132;-42
2024/01/29 06:16:45;;;;;;;9.93;5.05;;;-0.10;99.90;;;;;;5085094;28;20016;-42
2024/01/29 06:19:17;;;;;;;7.57;3.50;;;-0.10;99.90;;;;;;5084904;28;20269;-40
2024/01/29 06:21:43;;;;;;;9.63;3.83;;;0.00;99.90;;;;;;5096448;28;20119;-41
2024/01/29 06:24:09;;;;;;;7.43;4.00;;;0.00;99.90;;;;;;5085387;28;20554;-41
2024/01/29 06:26:35;;;;;;;12.13;4.50;;;-0.10;99.90;;;;;;5085155;28;20024;-41
2024/01/29 06:29:01;;;;;;;7.50;4.18;;;-0.10;99.90;;;;;;5085308;28;20020;-42
2024/01/29 06:31:26;;;;;;;8.85;4.40;;;-0.10;99.90;;;;;;5084866;28;20027;-43
2024/01/29 06:33:53;;;;;;;7.40;3.83;;;-0.10;99.90;;;;;;5085219;28;20470;-43
2024/01/29 06:36:20;;;;;;;9.05;4.25;;;-0.10;99.90;;;;;;5085311;28;20073;-44
2024/01/29 06:38:46;;;;;;;8.85;4.68;;;-0.10;99.90;;;;;;5084554;28;20052;-42
2024/01/29 06:41:24;;;;;;;9.32;4.80;;;-0.10;99.90;;;;;;5084605;28;20020;-42
2024/01/29 06:43:51;;;;;;;14.55;4.80;;;-0.10;99.90;;;;;;5081966;28;20024;-42
2024/01/29 06:46:17;;;;;;;11.30;5.28;;;-0.10;99.90;;;;;;5085246;28;20012;-42
2024/01/29 06:48:42;;;;;;;10.07;5.03;;;-0.10;99.90;;;;;;5084704;28;20388;-42
2024/01/29 06:51:08;;;;;;;11.43;4.28;;;-0.10;99.90;;;;;;5072595;28;20028;-43
2024/01/29 06:53:35;;;;;;;13.68;5.20;;;-0.10;99.90;;;;;;5076532;28;20100;-42
2024/01/29 06:56:04;;;;;;;14.00;4.90;;;-0.10;99.90;;;;;;5070843;28;20406;-42
2024/01/29 06:58:37;;;;;;;10.02;4.30;;;-0.10;99.90;;;;;;5070784;28;20024;-42
2024/01/29 07:01:03;;;;;;;9.18;4.88;;;0.00;99.90;;;;;;5076233;28;20021;-42
2024/01/29 07:03:29;;;;;;;10.02;5.30;;;0.00;99.90;;;;;;5070431;28;20375;-43
2024/01/29 07:05:56;;;;;;;12.68;4.90;;;0.00;99.90;;;;;;5070654;28;20019;-42
2024/01/29 07:08:22;;;;;;;11.13;5.43;;;0.00;99.90;;;;;;5069664;28;20028;-45
2024/01/29 07:10:47;;;;;;;10.27;5.28;;;0.00;99.90;;;;;;5073431;28;20381;-44
2024/01/29 07:13:13;;;;;;;14.20;5.65;;;0.00;99.90;;;;;;5070311;28;20040;-42
2024/01/29 07:15:40;;;;;;;11.32;6.05;;;0.00;99.90;;;;;;5075878;28;20035;-44
2024/01/29 07:18:06;;;;;;;12.88;5.28;;;0.00;99.90;;;;;;5070921;28;20033;-43
2024/01/29 07:20:38;;;;;;;10.65;5.20;;;0.10;99.90;;;;;;5070401;28;20564;-42
2024/01/29 07:23:08;;;;;;;9.85;4.75;;;0.20;99.90;;;;;;5072835;28;20103;-43
2024/01/29 07:25:34;;;;;;;9.05;4.75;;;0.20;99.90;;;;;;5073087;28;20016;-44
2024/01/29 07:28:03;;;;;;;9.98;5.15;;;0.20;99.90;;;;;;5070508;28;20497;-42
2024/01/29 07:30:28;;;;;;;14.45;5.32;;;0.30;99.90;;;;;;5068843;28;20541;-42
2024/01/29 07:32:54;;;;;;;11.05;6.20;;;0.30;99.90;;;;;;5070121;28;20099;-43
2024/01/29 07:35:20;;;;;;;7.80;4.45;;;0.20;99.90;;;;;;5073748;28;20031;-41
2024/01/29 07:37:45;;;;;;;8.23;4.97;;;0.30;99.90;;;;;;5075598;28;20024;-43
2024/01/29 07:40:11;;;;;;;10.95;4.90;;;0.40;99.90;;;;;;5083644;28;20027;-42
2024/01/29 07:42:37;;;;;;;16.00;5.82;;;0.40;99.90;;;;;;5074234;28;20020;-42
2024/01/29 07:45:03;;;;;;;17.55;8.15;;;0.50;99.90;;;;;;5071178;28;20024;-42
2024/01/29 07:47:29;;;;;;;32.53;9.77;;;0.50;99.90;;;;;;5079725;28;20494;-45
2024/01/29 07:49:55;;;;;;;25.20;9.50;;;0.50;99.90;;;;;;5069299;28;20081;-42
2024/01/29 07:52:20;;;;;;;18.42;8.70;;;0.50;99.90;;;;;;5069200;28;20514;-42
2024/01/29 07:54:46;;;;;;;13.88;7.07;;;0.50;99.90;;;;;;5069809;28;20150;-46
2024/01/29 07:57:11;;;;;;;13.50;5.95;;;0.60;99.90;;;;;;5069673;28;20105;-43
2024/01/29 07:59:37;;;;;;;10.32;5.43;;;0.70;99.90;;;;;;5072441;28;20035;-41
2024/01/29 08:02:03;;;;;;;12.95;5.70;;;0.70;99.90;;;;;;5066914;28;20712;-43
2024/01/29 08:04:28;;;;;;;10.45;5.45;;;0.70;99.90;;;;;;5069746;28;20493;-42
2024/01/29 08:06:54;;;;;;;9.60;5.32;;;0.80;99.90;;;;;;5076224;28;20024;-43
2024/01/29 08:09:19;;;;;;;9.73;5.70;;;0.80;99.90;;;;;;5069656;28;20039;-45
2024/01/29 08:11:45;;;;;;;12.77;6.00;;;0.90;99.90;;;;;;5076854;28;20032;-42
2024/01/29 08:14:11;;;;;;;10.38;5.63;;;0.90;99.90;;;;;;5073947;28;20455;-42
2024/01/29 08:16:36;;;;;;;11.45;5.70;;;1.00;99.90;;;;;;5076239;28;20038;-43
2024/01/29 08:19:02;;;;;;;14.25;6.53;;;1.00;99.90;;;;;;5074069;28;20027;-41
2024/01/29 08:21:28;;;;;;;9.55;5.53;;;1.10;99.90;;;;;;5068995;28;20021;-42
2024/01/29 08:23:55;;;;;;;9.13;5.32;;;1.10;99.90;;;;;;5072615;28;20120;-43
2024/01/29 08:26:21;;;;;;;12.43;6.70;;;1.20;99.90;;;;;;5072031;28;20043;-43
2024/01/29 08:28:46;;;;;;;13.02;6.35;;;1.30;99.90;;;;;;5068954;28;20047;-43
2024/01/29 08:31:12;;;;;;;12.98;6.43;;;1.40;99.90;;;;;;5068723;28;20035;-50
2024/01/29 08:33:38;;;;;;;10.30;5.57;;;1.50;99.90;;;;;;5068956;28;20028;-51
2024/01/29 08:36:03;;;;;;;9.10;5.38;;;1.50;99.90;;;;;;5067515;28;20051;-51
2024/01/29 08:38:29;;;;;;;9.98;5.45;;;1.60;99.90;;;;;;5068377;28;20490;-42
2024/01/29 08:40:55;;;;;;;10.15;5.65;;;1.60;99.90;;;;;;5067947;28;20032;-43
2024/01/29 08:43:20;;;;;;;9.80;5.60;;;1.70;99.90;;;;;;5068526;28;20052;-46
2024/01/29 08:45:46;;;;;;;10.35;5.95;;;1.80;99.90;;;;;;5073211;28;20028;-44
2024/01/29 08:48:12;;;;;;;10.68;5.95;;;1.90;99.90;;;;;;5075938;28;20025;-44
2024/01/29 08:50:38;;;;;;;12.30;6.47;;;2.00;99.90;;;;;;5068396;28;20004;-42
2024/01/29 08:53:03;;;;;;;10.55;6.45;;;2.00;99.90;;;;;;5068132;28;20028;-43
2024/01/29 08:55:31;;;;;;;13.18;6.60;;;2.10;99.90;;;;;;5068436;28;20035;-45
2024/01/29 08:57:57;;;;;;;11.27;6.28;;;2.20;99.90;;;;;;5068269;28;20024;-44
2024/01/29 09:00:22;;;;;;;11.63;5.75;;;2.20;99.90;;;;;;5066850;28;20061;-41
2024/01/29 09:02:49;;;;;;;9.57;5.95;;;2.30;99.90;;;;;;5066426;28;20028;-43
2024/01/29 09:05:15;;;;;;;10.07;6.05;;;2.40;99.90;;;;;;5067680;28;20020;-43
2024/01/29 09:07:41;;;;;;;15.00;6.68;;;2.50;99.90;;;;;;5066498;28;20013;-43
2024/01/29 09:10:08;;;;;;;18.95;7.28;;;2.60;99.90;;;;;;5076326;28;20595;-44
2024/01/29 09:12:33;;;;;;;13.10;6.80;;;2.70;99.90;;;;;;5071185;28;20031;-42
2024/01/29 09:14:59;;;;;;;15.73;6.47;;;2.80;99.90;;;;;;5068229;28;20406;-42
2024/01/29 09:17:25;;;;;;;12.13;6.80;;;2.90;99.90;;;;;;5071302;28;20047;-43
2024/01/29 09:19:51;;;;;;;12.38;6.60;;;3.00;99.90;;;;;;5068758;28;20087;-43
2024/01/29 09:22:17;;;;;;;11.35;5.90;;;3.10;99.90;;;;;;5072251;28;20028;-44
2024/01/29 09:24:43;;;;;;;8.90;5.68;;;3.20;99.90;;;;;;5068255;28;20602;-42
2024/01/29 09:27:09;;;;;;;8.27;3.70;;;3.40;99.90;;;;;;5072337;28;20023;-42
2024/01/29 09:29:35;;;;;;;10.65;4.05;;;3.80;99.90;;;;;;5068145;28;20509;-43
2024/01/29 09:32:00;;;;;;;6.32;3.35;;;4.10;99.90;;;;;;5068179;28;20029;-45
2024/01/29 09:34:27;;;;;;;3.20;2.28;;;4.40;99.90;;;;;;5068270;28;20012;-43
2024/01/29 09:36:53;;;;;;;4.88;2.53;;;4.90;99.90;;;;;;5068032;28;20111;-46
2024/01/29 09:39:19;;;;;;;4.93;2.65;;;5.10;99.90;;;;;;5068086;28;20024;-43
2024/01/29 09:41:46;;;;;;;5.53;2.58;;;5.40;99.90;;;;;;5067674;28;20096;-44
2024/01/29 09:44:12;;;;;;;6.75;2.67;;;5.70;99.90;;;;;;5068064;28;20509;-42
2024/01/29 09:46:40;;;;;;;7.25;2.90;;;6.20;99.90;;;;;;5071805;28;20103;-42
2024/01/29 09:49:06;;;;;;;3.58;2.53;;;6.50;99.90;;;;;;5066128;28;20021;-43
2024/01/29 09:51:33;;;;;;;8.15;2.47;;;6.80;99.90;;;;;;5067025;28;20024;-45
2024/01/29 09:54:03;;;;;;;7.38;2.95;;;7.10;98.80;;;;;;5068163;28;20078;-43
2024/01/29 09:56:29;;;;;;;7.47;3.13;;;7.40;97.80;;;;;;5064879;28;20013;-42
2024/01/29 09:58:55;;;;;;;4.80;2.80;;;7.60;96.30;;;;;;5067547;28;20024;-44
2024/01/29 10:01:22;;;;;;;3.53;2.60;;;7.90;96.00;;;;;;5067306;28;20028;-42
2024/01/29 10:03:49;;;;;;;3.85;2.55;;;8.10;95.20;;;;;;5067600;28;20020;-42
2024/01/29 10:06:15;;;;;;;3.85;2.58;;;8.30;94.40;;;;;;5067330;28;20111;-44
2024/01/29 10:08:41;;;;;;;4.63;2.55;;;8.50;94.60;;;;;;5069922;28;20087;-47
2024/01/29 10:11:07;;;;;;;3.60;2.40;;;8.60;93.70;;;;;;5067017;28;20017;-43
2024/01/29 10:13:33;;;;;;;8.75;2.92;;;8.80;94.00;;;;;;5070475;28;20069;-42
2024/01/29 10:15:59;;;;;;;6.53;2.78;;;9.00;92.70;;;;;;5067635;28;20074;-43
2024/01/29 10:18:25;;;;;;;5.07;2.83;;;9.20;92.60;;;;;;5070949;28;20478;-43
2024/01/29 10:21:00;;;;;;;5.05;3.00;;;9.30;92.40;;;;;;5067990;28;20005;-46
2024/01/29 10:23:25;;;;;;;5.15;3.13;;;9.60;92.50;;;;;;5070891;28;20012;-44
2024/01/29 10:25:58;;;;;;;3.90;2.90;;;10.10;91.20;;;;;;5072778;28;20864;-47
2024/01/29 10:28:26;;;;;;;4.43;2.88;;;11.10;90.40;;;;;;5074461;28;20013;-44
2024/01/29 10:30:52;;;;;;;4.40;2.70;;;11.90;87.50;;;;;;5073444;28;20029;-47
2024/01/29 10:33:18;;;;;;;6.10;2.70;;;12.40;87.80;;;;;;5071245;28;20043;-46
2024/01/29 10:35:43;;;;;;;6.72;3.05;;;13.10;85.60;;;;;;5071435;28;20489;-43
2024/01/29 10:38:13;;;;;;;5.82;2.53;;;13.60;82.70;;;;;;5071262;28;20035;-44
2024/01/29 10:40:39;;;;;;;4.18;2.97;;;13.70;81.50;;;;;;5074608;28;20040;-46
2024/01/29 10:43:05;;;;;;;3.60;3.00;;;13.90;80.40;;;;;;5073636;28;20030;-43
2024/01/29 10:45:38;;;;;;;5.55;3.38;;;13.60;78.00;;;;;;5071161;28;20188;-46
2024/01/29 10:48:19;;;;;;;5.25;3.50;;;13.80;78.80;;;;;;5071348;28;20044;-45
2024/01/29 10:50:45;;;;;;;;;;;14.20;78.00;;;;;;5070618;28;20024;-47
2024/01/29 10:53:13;;;;;;;4.75;2.92;;;15.10;75.70;;;;;;5070845;28;20356;-46
2024/01/29 10:55:39;;;;;;;4.95;3.03;;;14.90;73.70;;;;;;5072746;28;20020;-46
2024/01/29 10:58:07;;;;;;;4.53;2.83;;;14.40;74.80;;;;;;5070248;28;20044;-46
2024/01/29 11:00:35;;;;;;;5.40;3.03;;;13.90;74.30;;;;;;5070735;28;20021;-44
2024/01/29 11:03:03;;;;;;;3.67;2.53;;;13.70;75.90;;;;;;5069203;28;20020;-43
2024/01/29 11:05:30;;;;;;;4.68;2.67;;;13.50;74.70;;;;;;5067969;28;20482;-43
2024/01/29 11:08:00;;;;;;;4.82;2.90;;;13.60;76.20;;;;;;5069345;28;20027;-43
2024/01/29 11:10:28;;;;;;;6.57;2.63;;;14.40;74.60;;;;;;5076285;28;20012;-45
2024/01/29 11:12:57;;;;;;;2.75;2.33;;;15.20;71.40;;;;;;5070784;28;20432;-47
2024/01/29 11:15:23;;;;;;;3.72;2.65;;;15.70;70.70;;;;;;5074188;28;20036;-44
2024/01/29 11:17:49;;;;;;;3.92;2.58;;;15.80;68.60;;;;;;5073584;28;20016;-43
2024/01/29 11:20:17;;;;;;;3.47;2.58;;;15.80;69.40;;;;;;5073284;28;20077;-45
2024/01/29 11:22:57;;;;;;;2.80;2.50;;;16.60;69.20;;;;;;5070090;28;20017;-48
2024/01/29 11:25:22;;;;;;;4.30;2.40;;;17.20;67.50;;;;;;5070578;28;20016;-44
2024/01/29 11:27:49;;;;;;;5.13;2.53;;;17.90;65.90;;;;;;5070694;28;20048;-47
2024/01/29 11:30:23;;;;;;;4.03;2.75;;;18.60;64.10;;;;;;5067452;28;20100;-46
2024/01/29 11:32:51;;;;;;;4.00;2.60;;;19.20;63.20;;;;;;5063691;28;20032;-43
2024/01/29 11:35:24;;;;;;;4.70;2.70;;;19.50;61.90;;;;;;5069598;28;20509;-43
2024/01/29 11:37:50;;;;;;;5.50;2.75;;;19.90;59.30;;;;;;5064118;28;20027;-46
2024/01/29 11:40:32;;;;;;;5.57;2.50;;;19.60;59.10;;;;;;5069444;28;20025;-43
2024/01/29 11:43:03;;;;;;;3.08;2.70;;;19.90;59.40;;;;;;5063098;28;20481;-47
2024/01/29 11:45:29;;;;;;;4.47;2.70;;;19.90;58.90;;;;;;5071822;28;20051;-44
2024/01/29 11:47:55;;;;;;;4.55;2.50;;;20.20;58.60;;;;;;5069706;28;20013;-44
2024/01/29 11:50:21;;;;;;;4.15;2.38;;;19.90;57.90;;;;;;5068846;28;20029;-44
2024/01/29 11:52:46;;;;;;;2.42;2.00;;;20.10;58.90;;;;;;5069160;28;20470;-43
2024/01/29 11:55:14;;;;;;;3.15;2.45;;;20.10;58.90;;;;;;5074244;28;20066;-43
2024/01/29 11:57:44;;;;;;;4.00;2.38;;;20.60;57.80;;;;;;5069742;28;20013;-44
2024/01/29 12:00:10;;;;;;;4.72;2.30;;;20.40;57.10;;;;;;5068781;28;20036;-43
2024/01/29 12:02:36;;;;;;;4.30;2.20;;;20.30;57.30;;;;;;5068787;28;20212;-43
2024/01/29 12:05:02;;;;;;;3.90;2.67;;;20.20;57.70;;;;;;5069305;28;20074;-44
2024/01/29 12:07:28;;;;;;;3.75;2.38;;;19.60;58.00;;;;;;5067455;28;20032;-43
2024/01/29 12:09:54;;;;;;;2.85;2.13;;;19.40;58.70;;;;;;5068827;28;20347;-44
2024/01/29 12:12:20;;;;;;;3.67;2.42;;;19.20;58.30;;;;;;5069184;28;20058;-44
2024/01/29 12:14:45;;;;;;;2.95;1.98;;;19.00;59.10;;;;;;5070938;28;20103;-43
2024/01/29 12:17:14;;;;;;;5.68;2.78;;;18.60;58.90;;;;;;5068200;28;20244;-44
2024/01/29 12:19:40;;;;;;;3.28;2.30;;;18.30;60.20;;;;;;5067466;28;20088;-44
2024/01/29 12:22:12;;;;;;;3.05;2.22;;;17.80;60.80;;;;;;5071714;28;20021;-43
2024/01/29 12:24:38;;;;;;;3.08;2.47;;;17.60;61.60;;;;;;5067753;28;20026;-46
2024/01/29 12:27:04;;;;;;;4.75;2.50;;;17.30;61.20;;;;;;5071677;28;20028;-43
2024/01/29 12:29:32;;;;;;;3.42;2.35;;;17.00;62.60;;;;;;5069093;28;20036;-43
2024/01/29 12:32:08;;;;;;;4.15;2.67;;;16.60;63.20;;;;;;5066043;28;20028;-44
2024/01/29 12:34:42;;;;;;;4.43;2.78;;;16.50;63.50;;;;;;5067758;28;20496;-43
2024/01/29 12:37:23;;;;;;;2.88;2.50;;;16.40;65.00;;;;;;5068393;28;20036;-43
2024/01/29 12:39:54;;;;;;;5.63;2.90;;;16.60;63.30;;;;;;5066323;28;20024;-42
2024/01/29 12:42:21;;;;;;;3.35;2.58;;;16.40;63.80;;;;;;5068744;28;20027;-44
2024/01/29 12:44:48;;;;;;;3.22;2.80;;;16.00;65.00;;;;;;5066800;28;20020;-44